createdAt,value
2019-05-30T00:00:03.675Z,68.43
2019-05-30T00:02:20.760Z,68.46
2019-05-30T00:04:52.277Z,68.52
2019-05-30T00:07:23.956Z,68.80
2019-05-30T00:09:56.357Z,69.07
2019-05-30T00:12:27.855Z,69.13
2019-05-30T00:14:59.262Z,68.83
2019-05-30T00:17:30.862Z,68.52
2019-05-30T00:20:03.343Z,67.59
2019-05-30T00:22:36.026Z,66.91
2019-05-30T00:25:08.270Z,65.41
2019-05-30T00:27:39.887Z,63.37
2019-05-30T00:30:24.070Z,62.57
2019-05-30T00:32:44.709Z,63.03
2019-05-30T00:35:16.312Z,62.56
2019-05-30T00:37:48.142Z,62.86
2019-05-30T00:40:19.788Z,63.14
2019-05-30T00:42:52.065Z,63.95
2019-05-30T00:45:23.482Z,64.20
2019-05-30T00:47:55.968Z,65.26
2019-05-30T00:50:27.760Z,65.41
2019-05-30T00:53:00.683Z,63.69
2019-05-30T00:55:33.115Z,63.12
2019-05-30T00:58:04.890Z,62.61
2019-05-30T01:00:43.355Z,62.21
2019-05-30T01:03:10.804Z,62.08
2019-05-30T01:05:42.707Z,61.59
2019-05-30T01:08:14.406Z,61.41
2019-05-30T01:10:45.853Z,60.44
2019-05-30T01:13:17.456Z,58.67
2019-05-30T01:15:49.306Z,58.23
2019-05-30T01:18:20.776Z,58.74
2019-05-30T01:20:52.410Z,58.51
2019-05-30T01:23:24.738Z,61.14
2019-05-30T01:25:57.311Z,61.90
2019-05-30T01:28:29.016Z,62.18
2019-05-30T01:31:05.561Z,62.08
2019-05-30T01:33:33.630Z,62.34
2019-05-30T01:36:05.811Z,63.05
2019-05-30T01:38:37.173Z,63.54
2019-05-30T01:41:08.667Z,62.00
2019-05-30T01:43:40.219Z,62.83
2019-05-30T01:46:11.834Z,63.49
2019-05-30T01:48:43.122Z,63.76
2019-05-30T01:51:14.722Z,64.19
2019-05-30T01:53:46.393Z,64.50
2019-05-30T01:56:17.904Z,65.15
2019-05-30T01:58:49.281Z,65.68
2019-05-30T02:01:29.914Z,66.19
2019-05-30T02:04:03.129Z,66.37
2019-05-30T02:06:38.001Z,66.46
2019-05-30T02:09:10.386Z,66.04
2019-05-30T02:11:42.169Z,65.87
2019-05-30T02:14:13.836Z,65.59
2019-05-30T02:16:45.398Z,66.35
2019-05-30T02:19:16.753Z,66.54
2019-05-30T02:21:48.184Z,66.62
2019-05-30T02:24:21.147Z,66.56
2019-05-30T02:26:52.685Z,66.74
2019-05-30T02:29:24.098Z,66.82
2019-05-30T02:31:55.896Z,67.66
2019-05-30T02:34:27.655Z,67.01
2019-05-30T02:37:00.947Z,66.98
2019-05-30T02:39:32.197Z,67.03
2019-05-30T02:42:07.477Z,66.86
2019-05-30T02:44:39.320Z,67.00
2019-05-30T02:47:11.539Z,66.48
2019-05-30T02:49:43.257Z,66.58
2019-05-30T02:52:14.621Z,66.42
2019-05-30T02:54:47.067Z,66.73
2019-05-30T02:57:18.607Z,66.86
2019-05-30T02:59:50.099Z,66.26
2019-05-30T03:02:21.563Z,66.29
2019-05-30T03:04:53.007Z,65.88
2019-05-30T03:07:24.460Z,65.88
2019-05-30T03:09:55.949Z,66.91
2019-05-30T03:12:27.311Z,66.47
2019-05-30T03:14:58.928Z,66.57
2019-05-30T03:17:30.656Z,66.56
2019-05-30T03:20:07.966Z,66.68
2019-05-30T03:22:35.789Z,66.45
2019-05-30T03:25:27.584Z,66.32
2019-05-30T03:27:59.128Z,65.79
2019-05-30T03:30:31.156Z,65.34
2019-05-30T03:33:11.941Z,65.16
2019-05-30T03:35:42.388Z,65.34
2019-05-30T03:38:12.426Z,64.94
2019-05-30T03:40:42.060Z,64.61
2019-05-30T03:43:15.666Z,64.57
2019-05-30T03:45:47.225Z,64.68
2019-05-30T03:48:21.411Z,63.61
2019-05-30T03:50:55.728Z,63.47
2019-05-30T03:53:27.184Z,62.08
2019-05-30T03:56:06.533Z,62.65
2019-05-30T03:58:52.062Z,63.21
2019-05-30T04:01:28.417Z,63.60
2019-05-30T04:04:16.662Z,63.67
2019-05-30T04:06:51.495Z,63.50
2019-05-30T04:09:25.370Z,63.05
2019-05-30T04:12:07.774Z,59.47
2019-05-30T04:14:42.371Z,58.75
2019-05-30T04:17:16.007Z,57.82
2019-05-30T04:19:47.696Z,57.80
2019-05-30T04:22:19.609Z,58.31
2019-05-30T04:24:51.139Z,57.78
2019-05-30T04:27:22.553Z,57.93
2019-05-30T04:29:54.017Z,57.44
2019-05-30T04:32:25.624Z,57.19
2019-05-30T04:34:57.041Z,57.38
2019-05-30T04:37:28.506Z,57.19
2019-05-30T04:40:00.095Z,56.99
2019-05-30T04:42:31.885Z,56.92
2019-05-30T04:45:03.344Z,56.91
2019-05-30T04:47:35.254Z,56.95
2019-05-30T04:50:06.803Z,55.62
2019-05-30T04:52:38.665Z,56.27
2019-05-30T04:55:12.607Z,54.65
2019-05-30T04:57:43.614Z,53.66
2019-05-30T05:00:17.013Z,52.57
2019-05-30T05:02:49.014Z,53.17
2019-05-30T05:05:26.562Z,53.21
2019-05-30T05:07:53.443Z,52.94
2019-05-30T05:10:24.813Z,53.28
2019-05-30T05:12:56.344Z,53.33
2019-05-30T05:15:27.835Z,53.66
2019-05-30T05:17:59.135Z,52.95
2019-05-30T05:20:31.000Z,53.74
2019-05-30T05:23:02.491Z,53.48
2019-05-30T05:25:33.910Z,54.31
2019-05-30T05:28:05.642Z,54.89
2019-05-30T05:30:37.152Z,54.33
2019-05-30T05:33:08.641Z,53.84
2019-05-30T05:35:40.307Z,54.81
2019-05-30T05:38:11.645Z,53.23
2019-05-30T05:40:43.061Z,53.63
2019-05-30T05:43:14.557Z,51.96
2019-05-30T05:45:45.961Z,50.63
2019-05-30T05:48:18.376Z,51.24
2019-05-30T05:50:50.017Z,50.12
2019-05-30T05:53:22.953Z,50.25
2019-05-30T05:55:53.486Z,48.97
2019-05-30T05:58:26.436Z,48.14
2019-05-30T06:00:58.267Z,48.63
2019-05-30T06:03:29.759Z,47.84
2019-05-30T06:06:01.471Z,47.93
2019-05-30T06:08:33.363Z,48.29
2019-05-30T06:11:04.939Z,47.00
2019-05-30T06:13:36.519Z,46.71
2019-05-30T06:16:07.868Z,46.74
2019-05-30T06:18:39.336Z,44.84
2019-05-30T06:21:10.912Z,44.05
2019-05-30T06:23:45.648Z,44.41
2019-05-30T06:26:15.810Z,43.44
2019-05-30T06:28:47.415Z,43.15
2019-05-30T06:31:18.940Z,43.91
2019-05-30T06:33:50.919Z,43.08
2019-05-30T06:36:23.074Z,42.70
2019-05-30T06:38:54.879Z,42.13
2019-05-30T06:41:27.657Z,42.73
2019-05-30T06:43:59.191Z,43.44
2019-05-30T06:46:31.077Z,42.36
2019-05-30T06:49:02.842Z,39.66
2019-05-30T06:51:35.213Z,41.48
2019-05-30T06:54:06.765Z,40.89
2019-05-30T06:56:38.263Z,41.74
2019-05-30T06:59:10.112Z,40.82
2019-05-30T07:01:41.829Z,40.60
2019-05-30T07:04:13.968Z,40.43
2019-05-30T07:06:46.299Z,39.14
2019-05-30T07:09:18.367Z,37.92
2019-05-30T07:11:50.115Z,38.14
2019-05-30T07:14:23.031Z,40.10
2019-05-30T07:16:54.826Z,39.45
2019-05-30T07:19:27.399Z,38.58
2019-05-30T07:22:00.503Z,37.96
2019-05-30T07:24:33.928Z,36.85
2019-05-30T07:27:05.719Z,38.08
2019-05-30T07:29:37.410Z,37.77
2019-05-30T07:32:09.116Z,37.51
2019-05-30T07:34:40.801Z,36.21
2019-05-30T07:37:12.215Z,36.29
2019-05-30T07:39:43.694Z,37.00
2019-05-30T07:42:17.719Z,37.48
2019-05-30T07:44:49.417Z,35.96
2019-05-30T07:47:21.200Z,35.69
2019-05-30T07:49:52.768Z,36.79
2019-05-30T07:52:24.357Z,35.11
2019-05-30T07:54:56.110Z,36.17
2019-05-30T07:57:28.071Z,36.66
2019-05-30T07:59:59.730Z,35.15
2019-05-30T08:02:31.860Z,36.15
2019-05-30T08:05:03.535Z,36.06
2019-05-30T08:07:36.230Z,36.91
2019-05-30T08:10:08.662Z,36.35
2019-05-30T08:12:40.268Z,35.73
2019-05-30T08:15:13.151Z,35.58
2019-05-30T08:17:44.540Z,34.98
2019-05-30T08:20:16.446Z,35.75
2019-05-30T08:22:48.169Z,35.67
2019-05-30T08:25:19.891Z,33.67
2019-05-30T08:27:51.412Z,34.76
2019-05-30T08:30:23.243Z,35.16
2019-05-30T08:32:54.780Z,36.02
2019-05-30T08:35:39.098Z,35.30
2019-05-30T08:37:59.726Z,36.11
2019-05-30T08:40:31.285Z,34.62
2019-05-30T08:43:03.682Z,35.54
2019-05-30T08:45:35.937Z,34.13
2019-05-30T08:48:07.914Z,36.59
2019-05-30T08:50:44.068Z,33.94
2019-05-30T08:53:12.671Z,34.89
2019-05-30T08:55:44.397Z,34.22
2019-05-30T08:58:15.751Z,34.64
2019-05-30T09:00:47.282Z,34.64
2019-05-30T09:03:18.667Z,34.21
2019-05-30T09:06:03.021Z,33.60
2019-05-30T09:08:23.668Z,35.08
2019-05-30T09:10:55.353Z,33.72
2019-05-30T09:13:27.236Z,34.60
2019-05-30T09:15:58.934Z,34.58
2019-05-30T09:18:30.506Z,35.34
2019-05-30T09:21:02.045Z,34.80
2019-05-30T09:23:33.661Z,36.33
2019-05-30T09:26:05.221Z,36.28
2019-05-30T09:28:37.755Z,37.07
2019-05-30T09:31:08.738Z,36.97
2019-05-30T09:33:40.973Z,38.58
2019-05-30T09:36:13.972Z,38.58
2019-05-30T09:38:45.684Z,40.78
2019-05-30T09:41:17.333Z,39.77
2019-05-30T09:43:50.257Z,39.64
2019-05-30T09:46:20.705Z,38.86
2019-05-30T09:48:52.135Z,40.07
2019-05-30T09:51:23.712Z,39.85
2019-05-30T09:53:55.258Z,39.51
2019-05-30T09:56:26.929Z,39.06
2019-05-30T09:58:58.729Z,37.11
2019-05-30T10:01:30.339Z,36.32
2019-05-30T10:04:01.911Z,36.77
2019-05-30T10:06:33.608Z,35.86
2019-05-30T10:09:06.244Z,33.97
2019-05-30T10:11:38.020Z,33.95
2019-05-30T10:14:09.581Z,34.17
2019-05-30T10:16:41.079Z,34.17
2019-05-30T10:19:12.750Z,33.63
2019-05-30T10:21:45.505Z,32.54
2019-05-30T10:24:18.814Z,32.20
2019-05-30T10:26:51.106Z,32.20
2019-05-30T10:29:23.979Z,32.55
2019-05-30T10:31:56.897Z,33.45
2019-05-30T10:34:30.095Z,32.41
2019-05-30T10:37:01.759Z,33.01
2019-05-30T10:39:33.333Z,34.93
2019-05-30T10:42:04.612Z,34.33
2019-05-30T10:44:36.410Z,35.06
2019-05-30T10:47:08.216Z,36.70
2019-05-30T10:49:39.879Z,36.36
2019-05-30T10:52:11.472Z,35.57
2019-05-30T10:54:43.180Z,33.52
2019-05-30T10:57:14.615Z,33.38
2019-05-30T10:59:47.340Z,35.71
2019-05-30T11:02:19.872Z,34.50
2019-05-30T11:04:53.006Z,34.32
2019-05-30T11:07:53.082Z,35.91
2019-05-30T11:10:17.510Z,35.41
2019-05-30T11:12:50.156Z,34.97
2019-05-30T11:15:22.333Z,34.91
2019-05-30T11:17:54.807Z,37.32
2019-05-30T11:20:27.235Z,36.56
2019-05-30T11:22:58.796Z,37.18
2019-05-30T11:25:30.326Z,35.06
2019-05-30T11:28:02.125Z,36.98
2019-05-30T11:30:37.915Z,34.11
2019-05-30T11:33:09.521Z,32.96
2019-05-30T11:35:41.193Z,32.96
2019-05-30T11:38:12.881Z,32.11
2019-05-30T11:40:44.356Z,33.20
2019-05-30T11:43:16.058Z,32.04
2019-05-30T11:45:47.592Z,32.47
2019-05-30T11:48:19.054Z,33.53
2019-05-30T11:50:51.955Z,33.29
2019-05-30T11:53:23.721Z,34.26
2019-05-30T11:55:56.208Z,32.25
2019-05-30T11:58:28.137Z,34.01
2019-05-30T12:01:00.586Z,33.33
2019-05-30T12:03:33.315Z,34.71
2019-05-30T12:06:05.483Z,34.01
2019-05-30T12:08:38.241Z,34.01
2019-05-30T12:11:09.701Z,33.31
2019-05-30T12:13:41.011Z,33.79
2019-05-30T12:16:12.805Z,32.73
2019-05-30T12:18:44.132Z,32.56
2019-05-30T12:21:15.716Z,30.60
2019-05-30T12:23:47.462Z,30.30
2019-05-30T12:26:38.983Z,30.39
2019-05-30T12:29:10.444Z,29.65
2019-05-30T12:31:41.945Z,28.63
2019-05-30T12:34:13.272Z,28.34
2019-05-30T12:36:44.957Z,28.33
2019-05-30T12:39:16.987Z,26.50
2019-05-30T12:41:48.701Z,27.59
2019-05-30T12:44:20.501Z,25.56
2019-05-30T12:46:53.334Z,24.85
2019-05-30T12:49:25.089Z,24.47
2019-05-30T12:51:56.556Z,25.42
2019-05-30T12:54:28.307Z,25.93
2019-05-30T12:57:02.572Z,27.68
2019-05-30T12:59:34.305Z,27.75
2019-05-30T13:02:05.651Z,28.71
2019-05-30T13:04:37.021Z,28.96
2019-05-30T13:07:08.559Z,29.64
2019-05-30T13:09:40.098Z,32.52
2019-05-30T13:12:11.800Z,32.10
2019-05-30T13:14:43.240Z,32.87
2019-05-30T13:17:14.927Z,35.25
2019-05-30T13:19:46.525Z,34.77
2019-05-30T13:22:18.462Z,35.50
2019-05-30T13:24:49.962Z,33.84
2019-05-30T13:27:21.302Z,34.69
2019-05-30T13:29:53.157Z,34.92
2019-05-30T13:32:24.953Z,35.58
2019-05-30T13:34:56.905Z,35.19
2019-05-30T13:37:28.716Z,34.97
2019-05-30T13:40:01.402Z,31.85
2019-05-30T13:42:32.887Z,28.77
2019-05-30T13:45:04.693Z,27.32
2019-05-30T13:47:37.251Z,26.75
2019-05-30T13:50:14.021Z,26.82
2019-05-30T13:52:44.263Z,27.65
2019-05-30T13:55:16.411Z,29.88
2019-05-30T13:57:48.109Z,29.65
2019-05-30T14:00:19.972Z,30.19
2019-05-30T14:02:51.669Z,31.32
2019-05-30T14:05:23.364Z,32.18
2019-05-30T14:07:54.938Z,33.08
2019-05-30T14:10:26.529Z,33.01
2019-05-30T14:12:58.131Z,33.26
2019-05-30T14:15:29.872Z,31.41
2019-05-30T14:18:05.035Z,30.00
2019-05-30T14:20:36.576Z,31.02
2019-05-30T14:23:09.380Z,30.76
2019-05-30T14:25:41.185Z,29.10
2019-05-30T14:28:12.621Z,29.33
2019-05-30T14:30:45.329Z,26.99
2019-05-30T14:33:16.987Z,26.15
2019-05-30T14:35:48.391Z,25.81
2019-05-30T14:38:20.011Z,24.89
2019-05-30T14:40:52.112Z,25.54
2019-05-30T14:43:23.813Z,24.80
2019-05-30T14:45:55.378Z,24.58
2019-05-30T14:48:27.291Z,25.84
2019-05-30T14:51:00.009Z,26.14
2019-05-30T14:53:31.843Z,27.67
2019-05-30T14:56:03.381Z,28.96
2019-05-30T14:58:34.785Z,30.51
2019-05-30T15:01:07.101Z,32.11
2019-05-30T15:03:38.905Z,32.52
2019-05-30T15:06:12.928Z,33.85
2019-05-30T15:08:43.906Z,35.58
2019-05-30T15:11:16.903Z,35.94
2019-05-30T15:13:48.583Z,36.96
2019-05-30T15:16:20.294Z,37.40
2019-05-30T15:18:51.826Z,36.68
2019-05-30T15:21:23.312Z,36.32
2019-05-30T15:23:54.838Z,36.80
2019-05-30T15:26:26.667Z,37.02
2019-05-30T15:28:58.007Z,37.53
2019-05-30T15:31:29.682Z,36.99
2019-05-30T15:34:01.528Z,36.76
2019-05-30T15:36:33.131Z,36.74
2019-05-30T15:39:06.825Z,37.04
2019-05-30T15:41:38.513Z,37.25
2019-05-30T15:44:09.870Z,37.40
2019-05-30T15:46:41.371Z,38.08
2019-05-30T15:49:12.835Z,37.60
2019-05-30T15:51:44.534Z,38.36
2019-05-30T15:54:17.047Z,38.52
2019-05-30T15:56:48.831Z,37.55
2019-05-30T15:59:20.401Z,38.46
2019-05-30T16:01:51.869Z,37.45
2019-05-30T16:04:24.712Z,37.53
2019-05-30T16:06:56.318Z,38.08
2019-05-30T16:09:27.720Z,37.40
2019-05-30T16:11:59.442Z,37.24
2019-05-30T16:14:31.026Z,37.40
2019-05-30T16:17:02.765Z,37.84
2019-05-30T16:19:34.355Z,38.43
2019-05-30T16:22:05.618Z,39.08
2019-05-30T16:24:37.211Z,39.46
2019-05-30T16:27:08.844Z,39.48
2019-05-30T16:29:40.492Z,40.67
2019-05-30T16:32:13.689Z,39.60
2019-05-30T16:34:45.564Z,39.68
2019-05-30T16:37:18.177Z,40.55
2019-05-30T16:40:04.476Z,40.79
2019-05-30T16:42:23.150Z,41.04
2019-05-30T16:44:54.628Z,41.51
2019-05-30T16:47:26.673Z,41.89
2019-05-30T16:49:58.345Z,41.88
2019-05-30T16:52:30.021Z,42.67
2019-05-30T16:55:01.680Z,42.90
2019-05-30T16:57:33.314Z,43.29
2019-05-30T17:00:05.083Z,43.57
2019-05-30T17:02:36.646Z,43.42
2019-05-30T17:05:08.245Z,43.55
2019-05-30T17:07:39.694Z,43.85
2019-05-30T17:10:21.995Z,43.50
2019-05-30T17:12:44.506Z,43.64
2019-05-30T17:15:17.800Z,43.94
2019-05-30T17:17:49.605Z,44.27
2019-05-30T17:20:22.462Z,44.11
2019-05-30T17:22:54.225Z,44.53
2019-05-30T17:25:25.859Z,44.95
2019-05-30T17:27:57.477Z,44.67
2019-05-30T17:30:29.320Z,43.98
2019-05-30T17:33:01.254Z,44.11
2019-05-30T17:35:33.072Z,44.50
2019-05-30T17:38:04.795Z,44.97
2019-05-30T17:40:44.740Z,44.10
2019-05-30T17:43:08.494Z,43.91
2019-05-30T17:45:40.193Z,43.87
2019-05-30T17:48:16.360Z,44.08
2019-05-30T17:50:45.023Z,44.11
2019-05-30T17:53:17.805Z,43.84
2019-05-30T17:55:49.413Z,44.52
2019-05-30T17:58:21.889Z,45.02
2019-05-30T18:00:56.926Z,44.88
2019-05-30T18:03:28.440Z,44.88
2019-05-30T18:05:59.039Z,45.29
2019-05-30T18:08:31.442Z,45.18
2019-05-30T18:11:03.058Z,45.82
2019-05-30T18:13:34.727Z,46.09
2019-05-30T18:16:06.402Z,46.24
2019-05-30T18:18:37.948Z,46.60
2019-05-30T18:21:09.765Z,46.66
2019-05-30T18:23:44.235Z,47.22
2019-05-30T18:26:15.472Z,47.24
2019-05-30T18:28:46.964Z,47.78
2019-05-30T18:31:18.342Z,48.78
2019-05-30T18:33:49.945Z,49.60
2019-05-30T18:36:22.265Z,49.85
2019-05-30T18:38:53.980Z,50.49
2019-05-30T18:41:26.596Z,50.93
2019-05-30T18:43:58.211Z,51.96
2019-05-30T18:46:29.742Z,53.10
2019-05-30T18:49:01.201Z,53.74
2019-05-30T18:51:32.696Z,54.12
2019-05-30T18:54:04.152Z,54.72
2019-05-30T18:56:37.010Z,55.47
2019-05-30T18:59:08.804Z,55.49
2019-05-30T19:01:40.136Z,55.80
2019-05-30T19:04:11.895Z,55.78
2019-05-30T19:06:43.575Z,55.76
2019-05-30T19:09:15.167Z,55.55
2019-05-30T19:11:47.134Z,55.79
2019-05-30T19:14:18.577Z,56.06
2019-05-30T19:16:49.895Z,56.13
2019-05-30T19:19:21.398Z,56.16
2019-05-30T19:21:53.015Z,56.16
2019-05-30T19:24:25.967Z,55.90
2019-05-30T19:26:57.666Z,55.57
2019-05-30T19:29:29.176Z,55.20
2019-05-30T19:32:00.614Z,55.33
2019-05-30T19:34:32.809Z,55.50
2019-05-30T19:37:04.402Z,55.49
2019-05-30T19:39:36.157Z,55.41
2019-05-30T19:42:07.694Z,55.44
2019-05-30T19:44:41.485Z,55.99
2019-05-30T19:47:11.438Z,56.81
2019-05-30T19:49:42.841Z,56.64
2019-05-30T19:52:14.268Z,57.39
2019-05-30T19:54:45.662Z,57.62
2019-05-30T19:57:17.119Z,57.43
2019-05-30T19:59:48.358Z,57.73
2019-05-30T20:02:20.082Z,57.89
2019-05-30T20:04:51.488Z,58.05
2019-05-30T20:07:22.902Z,58.73
2019-05-30T20:10:01.193Z,59.54
2019-05-30T20:12:27.694Z,59.58
2019-05-30T20:14:59.191Z,59.62
2019-05-30T20:17:31.600Z,60.28
2019-05-30T20:20:03.290Z,60.97
2019-05-30T20:22:35.965Z,61.27
2019-05-30T20:25:09.465Z,61.65
2019-05-30T20:27:41.485Z,62.01
2019-05-30T20:30:13.841Z,62.14
2019-05-30T20:32:45.400Z,61.71
2019-05-30T20:35:17.220Z,62.06
2019-05-30T20:37:49.750Z,62.95
2019-05-30T20:40:21.235Z,63.05
2019-05-30T20:42:53.402Z,64.29
2019-05-30T20:45:25.044Z,63.83
2019-05-30T20:47:56.597Z,63.97
2019-05-30T20:50:28.477Z,63.88
2019-05-30T20:52:59.990Z,64.03
2019-05-30T20:55:32.172Z,64.18
2019-05-30T20:58:04.785Z,64.22
2019-05-30T21:00:40.487Z,63.78
2019-05-30T21:03:13.476Z,64.47
2019-05-30T21:05:46.018Z,64.87
2019-05-30T21:08:18.332Z,64.43
2019-05-30T21:10:52.212Z,64.46
2019-05-30T21:13:23.709Z,64.78
2019-05-30T21:15:56.967Z,65.50
2019-05-30T21:18:28.129Z,66.04
2019-05-30T21:20:59.732Z,66.38
2019-05-30T21:23:31.269Z,66.93
2019-05-30T21:26:02.669Z,67.39
2019-05-30T21:28:34.532Z,67.42
2019-05-30T21:31:06.287Z,67.61
2019-05-30T21:33:37.925Z,67.82
2019-05-30T21:36:10.461Z,67.80
2019-05-30T21:38:42.066Z,67.72
2019-05-30T21:41:13.746Z,68.08
2019-05-30T21:43:45.152Z,67.61
2019-05-30T21:46:16.720Z,67.36
2019-05-30T21:48:49.059Z,67.46
2019-05-30T21:51:20.663Z,67.23
2019-05-30T21:53:52.224Z,66.90
2019-05-30T21:56:23.692Z,66.85
2019-05-30T21:58:55.459Z,66.90
2019-05-30T22:01:34.131Z,66.52
2019-05-30T22:04:06.939Z,66.86
2019-05-30T22:06:40.856Z,66.80
2019-05-30T22:09:13.968Z,66.85
2019-05-30T22:11:45.795Z,66.87
2019-05-30T22:14:17.458Z,67.11
2019-05-30T22:16:50.242Z,66.92
2019-05-30T22:19:21.860Z,67.07
2019-05-30T22:21:53.598Z,66.80
2019-05-30T22:24:25.173Z,66.63
2019-05-30T22:26:56.756Z,66.12
2019-05-30T22:29:28.266Z,66.08
2019-05-30T22:32:00.533Z,65.79
2019-05-30T22:34:32.237Z,65.88
2019-05-30T22:37:03.922Z,66.06
2019-05-30T22:39:35.981Z,65.87
2019-05-30T22:42:07.447Z,65.65
2019-05-30T22:44:39.376Z,65.80
2019-05-30T22:47:11.071Z,65.52
2019-05-30T22:49:43.019Z,66.18
2019-05-30T22:52:14.681Z,65.89
2019-05-30T22:54:47.082Z,66.05
2019-05-30T22:57:18.908Z,66.08
2019-05-30T22:59:50.934Z,66.52
2019-05-30T23:02:23.083Z,66.34
2019-05-30T23:04:54.532Z,66.96
2019-05-30T23:07:25.864Z,66.58
2019-05-30T23:09:57.352Z,67.41
2019-05-30T23:12:28.921Z,67.79
2019-05-30T23:15:00.275Z,67.57
2019-05-30T23:17:31.686Z,68.08
2019-05-30T23:20:03.269Z,68.25
2019-05-30T23:22:34.860Z,68.66
2019-05-30T23:25:06.547Z,68.70
2019-05-30T23:27:38.334Z,69.24
2019-05-30T23:30:10.101Z,68.51
2019-05-30T23:32:41.738Z,68.46
2019-05-30T23:35:13.453Z,68.80
2019-05-30T23:37:44.955Z,68.60
2019-05-30T23:40:16.559Z,68.45
2019-05-30T23:42:48.942Z,68.51
2019-05-30T23:45:21.081Z,69.18
2019-05-30T23:47:53.482Z,69.68
2019-05-30T23:50:25.041Z,69.47
2019-05-30T23:52:58.159Z,70.18
2019-05-30T23:55:28.844Z,70.19
2019-05-30T23:58:00.852Z,70.58
